Wilson Lisbon — 5BNU3 — position and weather

sailwx.info

Track history (hours):
 
Tides and Currents Weather Stations Pressure Air Temp Water Temp Dewpoint Dewpoint Depression Visibility Wind Speed Wind Dir Waves Ship Positions

Wilson Lisbon

Last reported at 2015-Jul-05 23:33 UTC. Time now 2015-Jul-06 01:00 UTC.
Position N 52°35' E 003°26'.

Length 90 m; draft 5.7 m.

Type: Ship. MMSI: 212376000.

Date/timePositionNaut miles runAvg speedWind from/ knotsBaromVisibWave heightAir tempDewpointWater temp
2015-Jul-05 23:33N 52°35' E 003°26'9 9.1
2015-Jul-05 22:33N 52°42' E 003°36'11 8.2
2015-Jul-05 21:14N 52°50' E 003°47'5 7.3
2015-Jul-05 20:33N 52°54' E 003°52'27 6.7
2015-Jul-05 16:33N 53°13' E 004°25'33 8.3
2015-Jul-05 12:32N 53°44' E 004°44'9 8.2
2015-Jul-05 11:30N 53°52' E 004°49'7 7.8
2015-Jul-05 10:33N 53°59' E 004°54'8 7.7
2015-Jul-05 09:33N 54°06' E 004°59'99 8.2
2015-Jul-04 21:25N 55°33' E 006°21'7 7.9
2015-Jul-04 20:32N 55°40' E 006°27'130 8.1
2015-Jul-04 04:33N 57°34' E 008°19'8 7.7
2015-Jul-04 03:33N 57°41' E 008°26'8 7.6
2015-Jul-04 02:33N 57°47' E 008°33'9 7.9
2015-Jul-04 01:25N 57°55' E 008°40'7 8.2
2015-Jul-04 00:33N 58°02' E 008°47'8 8.4
2015-Jul-03 23:33N 58°08' E 008°57'9 8.5
2015-Jul-03 22:33N 58°14' E 009°08'8 8.3
2015-Jul-03 21:33N 58°21' E 009°18'8 8.1
2015-Jul-03 20:32N 58°27' E 009°27'8 7.9
2015-Jul-03 19:31N 58°34' E 009°37'9 7.9
2015-Jul-03 18:27N 58°42' E 009°42'8 8.7
2015-Jul-03 17:33N 58°49' E 009°45'8 8.2
2015-Jul-03 16:33N 58°58' E 009°46'8 7.9
2015-Jul-03 15:30N 59°05' E 009°38'3 0.2
2015-Jul-02 23:31N 59°07' E 009°34'0 0.0
2015-Jul-02 15:31N 59°07' E 009°34'0 0.0
2015-Jul-02 14:28N 59°07' E 009°34'0 0.1
2015-Jul-02 13:24N 59°07' E 009°34'0 0.0
2015-Jul-01 18:33N 59°07' E 009°35'0 0.0
2015-Jul-01 16:32N 59°07' E 009°34'0 0.0
2015-Jul-01 15:14N 59°07' E 009°34'0 0.0
2015-Jul-01 14:32N 59°07' E 009°34'0 0.0
2015-Jul-01 13:32N 59°07' E 009°34'0 0.0
2015-Jul-01 12:32N 59°07' E 009°34'0 0.0
2015-Jul-01 11:20N 59°07' E 009°34'0 0.0
2015-Jul-01 10:32N 59°07' E 009°34'0 0.0
2015-Jul-01 07:14N 59°07' E 009°34'0 0.0
2015-Jul-01 06:32N 59°07' E 009°34'0 0.1
2015-Jul-01 05:29N 59°07' E 009°35'0 0.0
2015-Jul-01 04:32N 59°07' E 009°35'0 0.0
2015-Jul-01 03:32N 59°07' E 009°35'0 0.0
2015-Jul-01 02:32N 59°07' E 009°35'0 0.0
2015-Jul-01 00:23N 59°07' E 009°34'0 0.0
2015-Jun-30 23:32N 59°07' E 009°34'0 0.0
2015-Jun-30 22:20N 59°07' E 009°34'0 0.0
2015-Jun-30 21:32N 59°07' E 009°34'0 0.0
2015-Jun-30 04:32N 59°07' E 009°35'0 0.0
2015-Jun-30 03:32N 59°07' E 009°35'0 0.0
2015-Jun-30 02:32N 59°07' E 009°35'0 0.0
2015-Jun-30 01:32N 59°07' E 009°35'0 0.0
2015-Jun-30 00:32N 59°07' E 009°35'0 0.0
2015-Jun-29 23:32N 59°07' E 009°35'0 0.0
2015-Jun-29 22:32N 59°07' E 009°35'0 0.0
2015-Jun-29 21:32N 59°07' E 009°35'0 0.0
2015-Jun-29 20:32N 59°07' E 009°35'0 0.0
2015-Jun-29 19:26N 59°07' E 009°35'0 0.0
2015-Jun-29 18:32N 59°07' E 009°35'0 0.1
2015-Jun-29 17:29N 59°07' E 009°34'  
2015-Jun-26 12:32N 54°18' E 005°18'1111.0
2015-Jun-26 11:31N 54°08' E 005°11'1010.7
2015-Jun-26 10:33N 53°58' E 005°04'1110.6
2015-Jun-26 09:33N 53°48' E 004°58'10 8.4
2015-Jun-26 08:21N 53°39' E 004°51'6 7.7
2015-Jun-26 07:34N 53°34' E 004°47'8 7.4
2015-Jun-26 06:30N 53°26' E 004°43'7 7.2
2015-Jun-26 05:33N 53°20' E 004°38'8 7.2
2015-Jun-26 04:31N 53°13' E 004°33'7 7.6
2015-Jun-26 03:33N 53°07' E 004°26'8 7.8
2015-Jun-26 02:33N 53°00' E 004°20'8 8.2
2015-Jun-26 01:34N 52°53' E 004°15'9 8.5
2015-Jun-26 00:33N 52°46' E 004°06'9 8.7
2015-Jun-25 23:34N 52°40' E 003°55'  
Track history (hours):
 
Tides and Currents Weather Stations Pressure Air Temp Water Temp Dewpoint Dewpoint Depression Visibility Wind Speed Wind Dir Waves Ship Positions

Wilson Lisbon

Last reported at 2015-Jul-05 23:33 UTC. Time now 2015-Jul-06 01:00 UTC.
Position N 52°35' E 003°26'.

Length 90 m; draft 5.7 m.

Type: Ship. MMSI: 212376000.

Date/timePositionNaut miles runAvg speedWind from/ knotsBaromVisibWave heightAir tempDewpointWater temp
2015-Jul-05 23:33N 52°35' E 003°26'9 9.1
2015-Jul-05 22:33N 52°42' E 003°36'11 8.2
2015-Jul-05 21:14N 52°50' E 003°47'5 7.3
2015-Jul-05 20:33N 52°54' E 003°52'27 6.7
2015-Jul-05 16:33N 53°13' E 004°25'33 8.3
2015-Jul-05 12:32N 53°44' E 004°44'9 8.2
2015-Jul-05 11:30N 53°52' E 004°49'7 7.8
2015-Jul-05 10:33N 53°59' E 004°54'8 7.7
2015-Jul-05 09:33N 54°06' E 004°59'99 8.2
2015-Jul-04 21:25N 55°33' E 006°21'7 7.9
2015-Jul-04 20:32N 55°40' E 006°27'130 8.1
2015-Jul-04 04:33N 57°34' E 008°19'8 7.7
2015-Jul-04 03:33N 57°41' E 008°26'8 7.6
2015-Jul-04 02:33N 57°47' E 008°33'9 7.9
2015-Jul-04 01:25N 57°55' E 008°40'7 8.2
2015-Jul-04 00:33N 58°02' E 008°47'8 8.4
2015-Jul-03 23:33N 58°08' E 008°57'9 8.5
2015-Jul-03 22:33N 58°14' E 009°08'8 8.3
2015-Jul-03 21:33N 58°21' E 009°18'8 8.1
2015-Jul-03 20:32N 58°27' E 009°27'8 7.9
2015-Jul-03 19:31N 58°34' E 009°37'9 7.9
2015-Jul-03 18:27N 58°42' E 009°42'8 8.7
2015-Jul-03 17:33N 58°49' E 009°45'8 8.2
2015-Jul-03 16:33N 58°58' E 009°46'8 7.9
2015-Jul-03 15:30N 59°05' E 009°38'3 0.2
2015-Jul-02 23:31N 59°07' E 009°34'0 0.0
2015-Jul-02 15:31N 59°07' E 009°34'0 0.0
2015-Jul-02 14:28N 59°07' E 009°34'0 0.1
2015-Jul-02 13:24N 59°07' E 009°34'0 0.0
2015-Jul-01 18:33N 59°07' E 009°35'0 0.0
2015-Jul-01 16:32N 59°07' E 009°34'0 0.0
2015-Jul-01 15:14N 59°07' E 009°34'0 0.0
2015-Jul-01 14:32N 59°07' E 009°34'0 0.0
2015-Jul-01 13:32N 59°07' E 009°34'0 0.0
2015-Jul-01 12:32N 59°07' E 009°34'0 0.0
2015-Jul-01 11:20N 59°07' E 009°34'0 0.0
2015-Jul-01 10:32N 59°07' E 009°34'0 0.0
2015-Jul-01 07:14N 59°07' E 009°34'0 0.0
2015-Jul-01 06:32N 59°07' E 009°34'0 0.1
2015-Jul-01 05:29N 59°07' E 009°35'0 0.0
2015-Jul-01 04:32N 59°07' E 009°35'0 0.0
2015-Jul-01 03:32N 59°07' E 009°35'0 0.0
2015-Jul-01 02:32N 59°07' E 009°35'0 0.0
2015-Jul-01 00:23N 59°07' E 009°34'0 0.0
2015-Jun-30 23:32N 59°07' E 009°34'0 0.0
2015-Jun-30 22:20N 59°07' E 009°34'0 0.0
2015-Jun-30 21:32N 59°07' E 009°34'0 0.0
2015-Jun-30 04:32N 59°07' E 009°35'0 0.0
2015-Jun-30 03:32N 59°07' E 009°35'0 0.0
2015-Jun-30 02:32N 59°07' E 009°35'0 0.0
2015-Jun-30 01:32N 59°07' E 009°35'0 0.0
2015-Jun-30 00:32N 59°07' E 009°35'0 0.0
2015-Jun-29 23:32N 59°07' E 009°35'0 0.0
2015-Jun-29 22:32N 59°07' E 009°35'0 0.0
2015-Jun-29 21:32N 59°07' E 009°35'0 0.0
2015-Jun-29 20:32N 59°07' E 009°35'0 0.0
2015-Jun-29 19:26N 59°07' E 009°35'0 0.0
2015-Jun-29 18:32N 59°07' E 009°35'0 0.1
2015-Jun-29 17:29N 59°07' E 009°34'  
2015-Jun-26 12:32N 54°18' E 005°18'1111.0
2015-Jun-26 11:31N 54°08' E 005°11'1010.7
2015-Jun-26 10:33N 53°58' E 005°04'1110.6
2015-Jun-26 09:33N 53°48' E 004°58'10 8.4
2015-Jun-26 08:21N 53°39' E 004°51'6 7.7
2015-Jun-26 07:34N 53°34' E 004°47'8 7.4
2015-Jun-26 06:30N 53°26' E 004°43'7 7.2
2015-Jun-26 05:33N 53°20' E 004°38'8 7.2
2015-Jun-26 04:31N 53°13' E 004°33'7 7.6
2015-Jun-26 03:33N 53°07' E 004°26'8 7.8
2015-Jun-26 02:33N 53°00' E 004°20'8 8.2
2015-Jun-26 01:34N 52°53' E 004°15'9 8.5
2015-Jun-26 00:33N 52°46' E 004°06'9 8.7
2015-Jun-25 23:34N 52°40' E 003°55'  

Dump ship's entire track history